createdAt,value
2017-04-04T00:00:22.914Z,9.56
2017-04-04T00:01:22.933Z,9.5
2017-04-04T00:02:22.959Z,9.6
2017-04-04T00:03:22.976Z,9.5
2017-04-04T00:04:22.995Z,9.48
2017-04-04T00:06:23.035Z,9.57
2017-04-04T00:07:23.058Z,9.6
2017-04-04T00:08:23.077Z,9.58
2017-04-04T00:09:23.103Z,9.57
2017-04-04T00:10:23.119Z,9.61
2017-04-04T00:11:23.142Z,9.48
2017-04-04T00:12:22.861Z,9.54
2017-04-04T00:13:23.181Z,9.51
2017-04-04T00:14:37.820Z,9.6
2017-04-04T00:15:23.223Z,9.57
2017-04-04T00:16:23.242Z,9.61
2017-04-04T00:17:23.262Z,9.54
2017-04-04T00:18:23.291Z,9.61
2017-04-04T00:21:23.350Z,9.65
2017-04-04T00:22:23.368Z,9.66
2017-04-04T00:24:23.405Z,9.65
2017-04-04T00:25:23.435Z,9.69
2017-04-04T00:26:23.454Z,9.65
2017-04-04T00:27:23.471Z,9.61
2017-04-04T00:28:23.498Z,9.69
2017-04-04T00:29:38.129Z,9.71
2017-04-04T00:30:23.538Z,9.65
2017-04-04T00:31:23.556Z,9.76
2017-04-04T00:32:23.574Z,9.72
2017-04-04T00:33:23.290Z,9.74
2017-04-04T00:35:23.678Z,9.78
2017-04-04T00:38:23.698Z,9.84
2017-04-04T00:40:38.054Z,9.87
2017-04-04T00:41:23.760Z,9.81
2017-04-04T00:42:38.396Z,9.78
2017-04-04T00:43:23.800Z,9.87
2017-04-04T00:44:23.823Z,9.86
2017-04-04T00:45:23.847Z,9.84
2017-04-04T00:46:23.560Z,9.79
2017-04-04T00:47:23.887Z,9.71
2017-04-04T00:48:23.907Z,9.81
2017-04-04T00:49:23.929Z,9.76
2017-04-04T00:50:23.953Z,9.74
2017-04-04T00:52:23.987Z,9.72
2017-04-04T00:53:24.012Z,9.68
2017-04-04T00:54:24.032Z,9.71
2017-04-04T00:56:24.072Z,9.6
2017-04-04T00:57:38.706Z,9.6
2017-04-04T00:58:24.112Z,9.68
2017-04-04T00:59:24.184Z,9.71
2017-04-04T01:00:24.167Z,9.64
2017-04-04T01:01:38.893Z,9.66
2017-04-04T01:02:24.193Z,9.81
2017-04-04T01:03:24.215Z,9.69
2017-04-04T01:04:24.235Z,9.84
2017-04-04T01:05:24.258Z,9.71
2017-04-04T01:06:24.579Z,9.68
2017-04-04T01:07:24.298Z,9.6
2017-04-04T01:08:24.318Z,9.64
2017-04-04T01:09:24.346Z,9.74
2017-04-04T01:10:24.372Z,9.69
2017-04-04T01:11:24.382Z,9.57
2017-04-04T01:12:24.402Z,9.64
2017-04-04T01:13:24.422Z,9.65
2017-04-04T01:14:39.058Z,9.64
2017-04-04T01:15:39.078Z,9.64
2017-04-04T01:16:24.182Z,9.65
2017-04-04T01:17:39.123Z,9.57
2017-04-04T01:18:24.527Z,9.54
2017-04-04T01:19:24.240Z,9.68
2017-04-04T01:20:24.566Z,9.68
2017-04-04T01:21:24.588Z,9.69
2017-04-04T01:22:24.611Z,9.71
2017-04-04T01:23:24.626Z,9.69
2017-04-04T01:25:24.670Z,9.79
2017-04-04T01:27:24.714Z,9.72
2017-04-04T01:28:24.731Z,9.69
2017-04-04T01:29:24.756Z,9.72
2017-04-04T01:30:24.475Z,9.71
2017-04-04T01:31:24.793Z,9.86
2017-04-04T01:32:24.814Z,9.69
2017-04-04T01:33:39.450Z,9.68
2017-04-04T01:34:24.856Z,9.69
2017-04-04T01:35:24.881Z,9.71
2017-04-04T01:36:24.898Z,9.57
2017-04-04T01:37:24.613Z,9.69
2017-04-04T01:38:24.936Z,9.61
2017-04-04T01:39:24.958Z,9.57
2017-04-04T01:40:24.987Z,9.56
2017-04-04T01:42:25.023Z,9.57
2017-04-04T01:43:25.041Z,9.6
2017-04-04T01:44:25.067Z,9.61
2017-04-04T01:45:25.084Z,9.65
2017-04-04T01:46:25.103Z,9.65
2017-04-04T01:47:25.123Z,9.66
2017-04-04T01:48:24.540Z,9.58
2017-04-04T01:49:39.781Z,9.58
2017-04-04T01:50:24.580Z,9.58
2017-04-04T01:51:25.209Z,9.61
2017-04-04T01:52:24.618Z,9.6
2017-04-04T01:53:25.254Z,9.56
2017-04-04T01:54:25.272Z,9.57
2017-04-04T01:55:25.288Z,9.56
2017-04-04T01:56:25.308Z,9.6
2017-04-04T01:57:25.332Z,9.54
2017-04-04T01:58:25.351Z,9.51
2017-04-04T01:59:39.988Z,9.56
2017-04-04T02:00:25.088Z,9.56
2017-04-04T02:01:25.416Z,9.6
2017-04-04T02:02:25.128Z,9.58
2017-04-04T02:03:25.455Z,9.61
2017-04-04T02:04:39.989Z,9.71
2017-04-04T02:05:25.192Z,9.71
2017-04-04T02:06:25.513Z,9.64
2017-04-04T02:07:25.537Z,9.64
2017-04-04T02:08:25.554Z,9.57
2017-04-04T02:09:25.618Z,9.58
2017-04-04T02:10:25.601Z,9.68
2017-04-04T02:11:25.317Z,9.69
2017-04-04T02:14:25.678Z,9.72
2017-04-04T02:15:25.399Z,9.58
2017-04-04T02:16:25.721Z,9.54
2017-04-04T02:17:40.357Z,9.54
2017-04-04T02:18:25.761Z,9.66
2017-04-04T02:19:25.781Z,9.58
2017-04-04T02:20:25.855Z,9.56
2017-04-04T02:21:25.825Z,9.4
2017-04-04T02:22:25.853Z,9.5
2017-04-04T02:23:25.863Z,9.47
2017-04-04T02:24:25.886Z,9.46
2017-04-04T02:25:25.605Z,9.48
2017-04-04T02:26:25.929Z,9.51
2017-04-04T02:29:25.986Z,9.43
2017-04-04T02:30:26.014Z,9.42
2017-04-04T02:31:26.031Z,9.4
2017-04-04T02:32:26.051Z,9.4
2017-04-04T02:33:26.072Z,9.48
2017-04-04T02:34:26.095Z,9.47
2017-04-04T02:35:26.114Z,9.48
2017-04-04T02:36:40.749Z,9.38
2017-04-04T02:37:25.847Z,9.33
2017-04-04T02:38:26.172Z,9.47
2017-04-04T02:39:26.194Z,9.48
2017-04-04T02:40:26.213Z,9.42
2017-04-04T02:42:26.254Z,9.29
2017-04-04T02:43:26.315Z,9.33
2017-04-04T02:44:25.994Z,9.46
2017-04-04T02:45:26.016Z,9.5
2017-04-04T02:47:25.748Z,9.46
2017-04-04T02:48:26.378Z,9.39
2017-04-04T02:49:26.093Z,9.33
2017-04-04T02:50:26.421Z,9.48
2017-04-04T02:51:26.440Z,9.4
2017-04-04T02:52:41.074Z,9.33
2017-04-04T02:54:26.507Z,9.31
2017-04-04T02:55:26.519Z,9.32
2017-04-04T02:56:26.543Z,9.39
2017-04-04T02:58:26.585Z,9.43
2017-04-04T02:59:26.853Z,9.46
2017-04-04T03:01:26.647Z,9.36
2017-04-04T03:02:26.668Z,9.31
2017-04-04T03:03:26.383Z,9.38
2017-04-04T03:04:41.322Z,9.33
2017-04-04T03:05:26.725Z,9.32
2017-04-04T03:06:26.748Z,9.29
2017-04-04T03:07:26.770Z,9.33
2017-04-04T03:08:41.404Z,9.39
2017-04-04T03:09:26.504Z,9.46
2017-04-04T03:10:26.830Z,9.32
2017-04-04T03:11:26.853Z,9.24
2017-04-04T03:12:26.870Z,9.24
2017-04-04T03:13:26.888Z,9.31
2017-04-04T03:14:26.909Z,9.18
2017-04-04T03:15:26.930Z,9.21
2017-04-04T03:16:26.953Z,9.17
2017-04-04T03:17:26.971Z,9.28
2017-04-04T03:18:26.990Z,9.24
2017-04-04T03:19:27.009Z,9.31
2017-04-04T03:20:41.648Z,9.23
2017-04-04T03:21:27.054Z,9.23
2017-04-04T03:22:27.074Z,9.26
2017-04-04T03:23:27.091Z,9.26
2017-04-04T03:24:41.728Z,9.21
2017-04-04T03:25:27.133Z,9.26
2017-04-04T03:26:26.849Z,9.15
2017-04-04T03:27:27.179Z,9.2
2017-04-04T03:28:27.193Z,9.26
2017-04-04T03:29:27.217Z,9.18
2017-04-04T03:30:26.932Z,9.23
2017-04-04T03:31:27.256Z,9.33
2017-04-04T03:32:27.281Z,9.32
2017-04-04T03:33:27.298Z,9.33
2017-04-04T03:34:27.320Z,9.4
2017-04-04T03:35:41.650Z,9.26
2017-04-04T03:36:27.361Z,9.36
2017-04-04T03:37:27.379Z,9.39
2017-04-04T03:38:27.094Z,9.35
2017-04-04T03:39:42.037Z,9.38
2017-04-04T03:40:27.442Z,9.35
2017-04-04T03:41:27.464Z,9.33
2017-04-04T03:42:27.484Z,9.33
2017-04-04T03:43:27.504Z,9.35
2017-04-04T03:44:27.523Z,9.35
2017-04-04T03:45:27.239Z,9.24
2017-04-04T03:46:27.564Z,9.33
2017-04-04T03:47:27.584Z,9.29
2017-04-04T03:48:27.602Z,9.23
2017-04-04T03:49:27.360Z,9.21
2017-04-04T03:50:42.260Z,9.18
2017-04-04T03:51:42.282Z,9.08
2017-04-04T03:52:27.689Z,9.2
2017-04-04T03:53:27.402Z,9.15
2017-04-04T03:54:27.727Z,9.18
2017-04-04T03:55:27.753Z,9.18
2017-04-04T03:56:27.771Z,9.15
2017-04-04T03:57:27.788Z,9.23
2017-04-04T03:58:27.503Z,9.23
2017-04-04T03:59:27.222Z,9.28
2017-04-04T04:00:27.849Z,9.23
2017-04-04T04:01:27.875Z,9.13
2017-04-04T04:02:27.892Z,9.14
2017-04-04T04:03:27.944Z,9.14
2017-04-04T04:04:27.928Z,9.29
2017-04-04T04:05:27.653Z,9.24
2017-04-04T04:06:27.971Z,9.28
2017-04-04T04:07:27.991Z,9.29
2017-04-04T04:08:28.011Z,9.29
2017-04-04T04:09:27.734Z,9.29
2017-04-04T04:10:42.376Z,9.24
2017-04-04T04:11:42.689Z,9.28
2017-04-04T04:12:28.095Z,9.33
2017-04-04T04:13:28.114Z,9.21
2017-04-04T04:14:28.134Z,9.24
2017-04-04T04:16:28.176Z,9.31
2017-04-04T04:17:28.194Z,9.24
2017-04-04T04:18:28.215Z,9.24
2017-04-04T04:19:28.280Z,9.26
2017-04-04T04:20:28.258Z,9.18
2017-04-04T04:22:28.297Z,9.13
2017-04-04T04:23:28.015Z,9.18
2017-04-04T04:24:42.952Z,9.24
2017-04-04T04:25:28.395Z,9.2
2017-04-04T04:26:28.381Z,9.26
2017-04-04T04:27:43.064Z,9.26
2017-04-04T04:28:28.418Z,9.28
2017-04-04T04:29:28.437Z,9.26
2017-04-04T04:30:28.458Z,9.24
2017-04-04T04:31:28.182Z,9.31
2017-04-04T04:32:28.500Z,9.21
2017-04-04T04:34:28.540Z,9.13
2017-04-04T04:35:28.559Z,9.15
2017-04-04T04:36:28.737Z,9.1
2017-04-04T04:37:28.602Z,9.21
2017-04-04T04:38:28.621Z,9.23
2017-04-04T04:39:28.643Z,9.24
2017-04-04T04:40:43.277Z,9.21
2017-04-04T04:41:28.686Z,9.33
2017-04-04T04:42:28.707Z,9.14
2017-04-04T04:43:43.338Z,9.18
2017-04-04T04:44:28.945Z,9.14
2017-04-04T04:45:28.462Z,9.21
2017-04-04T04:47:28.502Z,9.26
2017-04-04T04:48:28.975Z,9.36
2017-04-04T04:49:43.467Z,9.33
2017-04-04T04:50:28.872Z,9.36
2017-04-04T04:52:28.906Z,9.36
2017-04-04T04:53:28.927Z,9.24
2017-04-04T04:54:43.563Z,9.28
2017-04-04T04:55:28.969Z,9.2
2017-04-04T04:56:28.685Z,9.14
2017-04-04T04:57:29.008Z,9.11
2017-04-04T04:58:28.726Z,9.11
2017-04-04T04:59:43.667Z,9.13
2017-04-04T05:00:29.072Z,8.92
2017-04-04T05:01:29.092Z,8.87
2017-04-04T05:02:28.504Z,8.81
2017-04-04T05:03:29.176Z,8.89
2017-04-04T05:04:29.151Z,8.81
2017-04-04T05:05:29.233Z,8.8
2017-04-04T05:06:29.192Z,8.79
2017-04-04T05:07:28.914Z,8.84
2017-04-04T05:08:29.235Z,8.84
2017-04-04T05:09:28.950Z,8.92
2017-04-04T05:10:43.890Z,8.84
2017-04-04T05:11:29.295Z,8.83
2017-04-04T05:12:29.316Z,8.86
2017-04-04T05:13:29.336Z,8.81
2017-04-04T05:14:43.972Z,8.91
2017-04-04T05:15:29.082Z,8.91
2017-04-04T05:16:29.399Z,8.91
2017-04-04T05:17:29.114Z,9.01
2017-04-04T05:19:29.458Z,9.17
2017-04-04T05:20:29.479Z,9.24
2017-04-04T05:21:44.121Z,9.36
2017-04-04T05:22:29.522Z,9.38
2017-04-04T05:24:29.561Z,9.42
2017-04-04T05:25:29.281Z,9.47
2017-04-04T05:26:29.608Z,9.5
2017-04-04T05:27:29.629Z,9.57
2017-04-04T05:28:29.645Z,9.58
2017-04-04T05:29:29.670Z,9.65
2017-04-04T05:30:29.690Z,9.86
2017-04-04T05:31:29.711Z,10.01
2017-04-04T05:32:29.731Z,10.08
2017-04-04T05:33:29.755Z,10.12
2017-04-04T05:35:29.799Z,10.09
2017-04-04T05:37:29.845Z,9.97
2017-04-04T05:38:29.865Z,10.07
2017-04-04T05:39:29.885Z,10.09
2017-04-04T05:40:44.521Z,10.18
2017-04-04T05:41:44.543Z,10.22
2017-04-04T05:42:29.954Z,10.23
2017-04-04T05:43:29.971Z,10.51
2017-04-04T05:44:29.993Z,10.53
2017-04-04T05:45:30.013Z,10.71
2017-04-04T05:46:44.660Z,10.74
2017-04-04T05:47:30.058Z,10.66
2017-04-04T05:48:30.083Z,10.4
2017-04-04T05:49:30.107Z,10.29
2017-04-04T05:50:30.127Z,10.27
2017-04-04T05:51:30.154Z,10.3
2017-04-04T05:52:30.168Z,10.17
2017-04-04T05:53:30.192Z,10.18
2017-04-04T05:55:30.239Z,10.05
2017-04-04T05:56:29.958Z,10.18
2017-04-04T05:57:30.280Z,10.18
2017-04-04T05:58:30.301Z,10.18
2017-04-04T05:59:30.329Z,10.3
2017-04-04T06:00:30.356Z,10.3
2017-04-04T06:01:30.368Z,10.3
2017-04-04T06:02:45.005Z,10.29
2017-04-04T06:03:30.423Z,10.33
2017-04-04T06:04:30.436Z,10.29
2017-04-04T06:05:30.458Z,10.29
2017-04-04T06:06:30.480Z,10.26
2017-04-04T06:08:30.519Z,10.26
2017-04-04T06:09:30.544Z,10.29
2017-04-04T06:10:30.566Z,10.38
2017-04-04T06:12:30.609Z,10.26
2017-04-04T06:13:30.632Z,10.26
2017-04-04T06:14:30.649Z,10.25
2017-04-04T06:15:30.369Z,10.34
2017-04-04T06:16:30.700Z,10.34
2017-04-04T06:17:30.409Z,10.38
2017-04-04T06:18:45.352Z,10.38
2017-04-04T06:19:30.757Z,10.38
2017-04-04T06:20:30.778Z,10.38
2017-04-04T06:21:30.498Z,10.25
2017-04-04T06:23:30.846Z,10.29
2017-04-04T06:24:30.563Z,10.22
2017-04-04T06:25:30.887Z,10.22
2017-04-04T06:27:30.930Z,10.22
2017-04-04T06:28:30.956Z,10.15
2017-04-04T06:29:45.587Z,10.18
2017-04-04T06:30:30.994Z,10.26
2017-04-04T06:31:31.012Z,10.18
2017-04-04T06:32:31.037Z,10.23
2017-04-04T06:33:31.055Z,10.25
2017-04-04T06:34:45.389Z,10.27
2017-04-04T06:35:31.099Z,10.27
2017-04-04T06:36:31.118Z,10.4
2017-04-04T06:37:31.140Z,10.42
2017-04-04T06:38:31.163Z,10.38
2017-04-04T06:39:31.191Z,10.4
2017-04-04T06:41:31.225Z,10.52
2017-04-04T06:42:30.944Z,10.44
2017-04-04T06:43:31.270Z,10.53
2017-04-04T06:45:31.314Z,10.18
2017-04-04T06:46:45.947Z,9.76
2017-04-04T06:47:31.053Z,9.61
2017-04-04T06:48:31.379Z,9.57
2017-04-04T06:49:45.711Z,9.69
2017-04-04T06:50:31.419Z,9.86
2017-04-04T06:51:31.441Z,9.93
2017-04-04T06:52:31.461Z,9.96
2017-04-04T06:53:31.483Z,9.84
2017-04-04T06:54:31.506Z,9.71
2017-04-04T06:55:31.525Z,9.79
2017-04-04T06:57:31.568Z,10.11
2017-04-04T06:58:31.585Z,10.22
2017-04-04T06:59:31.613Z,10.2
2017-04-04T07:00:46.246Z,10.25
2017-04-04T07:01:31.649Z,10.17
2017-04-04T07:02:31.672Z,10.33
2017-04-04T07:03:31.710Z,10.22
2017-04-04T07:04:31.716Z,10.23
2017-04-04T07:05:31.738Z,10.25
2017-04-04T07:06:31.756Z,10.2
2017-04-04T07:07:31.783Z,10.25
2017-04-04T07:08:31.800Z,10.32
2017-04-04T07:09:31.214Z,10.29
2017-04-04T07:10:31.843Z,10.27
2017-04-04T07:11:31.866Z,10.18
2017-04-04T07:12:31.885Z,10.25
2017-04-04T07:13:31.908Z,10.4
2017-04-04T07:14:31.929Z,10.3
2017-04-04T07:15:31.949Z,10.36
2017-04-04T07:16:46.585Z,10.29
2017-04-04T07:17:31.995Z,10.33
2017-04-04T07:18:46.626Z,10.47
2017-04-04T07:19:32.036Z,10.41
2017-04-04T07:20:31.749Z,10.55
2017-04-04T07:21:46.694Z,10.66
2017-04-04T07:22:32.097Z,10.61
2017-04-04T07:23:32.119Z,10.56
2017-04-04T07:24:32.139Z,10.29
2017-04-04T07:25:31.856Z,10.18
2017-04-04T07:26:32.178Z,10.18
2017-04-04T07:27:31.904Z,10.17
2017-04-04T07:29:32.244Z,9.99
2017-04-04T07:30:32.266Z,9.93
2017-04-04T07:31:32.289Z,10.07
2017-04-04T07:32:32.307Z,10.09
2017-04-04T07:33:32.327Z,10.12
2017-04-04T07:34:32.351Z,10.29
2017-04-04T07:35:32.374Z,10.27
2017-04-04T07:36:32.394Z,10.36
2017-04-04T07:37:47.029Z,10.25
2017-04-04T07:38:32.132Z,10.27
2017-04-04T07:39:32.461Z,10.32
2017-04-04T07:40:32.482Z,10.32
2017-04-04T07:42:32.563Z,10.25
2017-04-04T07:43:32.542Z,10.38
2017-04-04T07:44:47.184Z,10.23
2017-04-04T07:45:32.583Z,10.26
2017-04-04T07:46:32.608Z,10.22
2017-04-04T07:47:32.017Z,10.29
2017-04-04T07:48:32.650Z,10.34
2017-04-04T07:49:32.673Z,10.32
2017-04-04T07:50:32.385Z,10.18
2017-04-04T07:51:32.715Z,10.22
2017-04-04T07:52:32.734Z,10.26
2017-04-04T07:53:47.371Z,10.15
2017-04-04T07:54:32.775Z,10.32
2017-04-04T07:55:32.798Z,10.05
2017-04-04T07:56:32.818Z,9.91
2017-04-04T07:57:32.846Z,9.87
2017-04-04T07:58:32.557Z,9.99
2017-04-04T08:00:32.905Z,9.99
2017-04-04T08:01:32.923Z,10.01
2017-04-04T08:02:32.944Z,10.08
2017-04-04T08:03:32.968Z,9.96
2017-04-04T08:04:32.986Z,9.96
2017-04-04T08:05:33.011Z,10.01
2017-04-04T08:06:33.031Z,9.97
2017-04-04T08:07:33.056Z,9.93
2017-04-04T08:08:33.123Z,10.09
2017-04-04T08:09:47.709Z,10.18
2017-04-04T08:10:33.117Z,10.12
2017-04-04T08:11:33.138Z,10.01
2017-04-04T08:12:33.161Z,9.94
2017-04-04T08:13:33.179Z,10.01
2017-04-04T08:14:33.207Z,9.79
2017-04-04T08:15:33.224Z,9.96
2017-04-04T08:16:32.946Z,9.99
2017-04-04T08:17:33.261Z,10.17
2017-04-04T08:18:33.293Z,10.26
2017-04-04T08:19:47.925Z,10.59
2017-04-04T08:20:47.943Z,10.79
2017-04-04T08:21:33.346Z,10.91
2017-04-04T08:22:33.407Z,11.32
2017-04-04T08:23:33.392Z,11.29
2017-04-04T08:24:48.030Z,11.09
2017-04-04T08:25:33.443Z,11
2017-04-04T08:26:33.453Z,11.17
2017-04-04T08:27:33.479Z,11.17
2017-04-04T08:28:33.498Z,11.18
2017-04-04T08:29:33.524Z,11.1
2017-04-04T08:30:33.542Z,10.99
2017-04-04T08:31:33.562Z,10.73
2017-04-04T08:32:48.203Z,10.64
2017-04-04T08:33:33.603Z,10.67
2017-04-04T08:34:33.629Z,10.74
2017-04-04T08:35:33.648Z,10.89
2017-04-04T08:36:33.676Z,10.73
2017-04-04T08:37:33.692Z,10.63
2017-04-04T08:38:33.713Z,10.51
2017-04-04T08:39:33.735Z,10.59
2017-04-04T08:40:33.758Z,10.66
2017-04-04T08:41:33.776Z,10.74
2017-04-04T08:42:33.805Z,10.94
2017-04-04T08:43:33.819Z,11.09
2017-04-04T08:44:33.845Z,10.89
2017-04-04T08:45:33.870Z,11.09
2017-04-04T08:46:33.887Z,11.15
2017-04-04T08:48:33.932Z,11.32
2017-04-04T08:49:33.952Z,11.27
2017-04-04T08:50:33.978Z,11.25
2017-04-04T08:51:33.998Z,11.24
2017-04-04T08:52:34.020Z,11.14
2017-04-04T08:53:34.040Z,10.91
2017-04-04T08:54:33.759Z,11.09
2017-04-04T08:55:34.082Z,10.7
2017-04-04T08:56:48.720Z,10.52
2017-04-04T08:57:33.821Z,10.34
2017-04-04T08:58:34.147Z,10.17
2017-04-04T08:59:34.176Z,10.26
2017-04-04T09:00:33.886Z,10.26
2017-04-04T09:01:34.211Z,10.47
2017-04-04T09:05:34.302Z,10.29
2017-04-04T09:06:34.326Z,10.07
2017-04-04T09:07:34.343Z,10.07
2017-04-04T09:08:34.363Z,10.14
2017-04-04T09:09:34.385Z,10.22
2017-04-04T09:10:34.409Z,10.33
2017-04-04T09:11:34.429Z,10.47
2017-04-04T09:12:49.065Z,10.53
2017-04-04T09:13:34.470Z,10.64
2017-04-04T09:14:34.494Z,10.51
2017-04-04T09:15:34.516Z,10.38
2017-04-04T09:16:34.539Z,10.55
2017-04-04T09:17:34.251Z,10.48
2017-04-04T09:18:34.581Z,10.34
2017-04-04T09:19:34.654Z,10.32
2017-04-04T09:21:34.643Z,10.47
2017-04-04T09:23:34.695Z,10.76
2017-04-04T09:24:34.710Z,10.91
2017-04-04T09:25:34.426Z,11.09
2017-04-04T09:26:34.754Z,11.22
2017-04-04T09:27:34.777Z,11.28
2017-04-04T09:28:49.408Z,11.06
2017-04-04T09:29:34.816Z,10.91
2017-04-04T09:30:34.840Z,11.06
2017-04-04T09:31:34.861Z,11.1
2017-04-04T09:33:34.903Z,10.88
2017-04-04T09:34:34.927Z,10.96
2017-04-04T09:35:49.567Z,10.96
2017-04-04T09:36:34.966Z,11.15
2017-04-04T09:38:35.014Z,11.17
2017-04-04T09:39:35.033Z,11.42
2017-04-04T09:40:49.671Z,11.8
2017-04-04T09:41:35.079Z,12.14
2017-04-04T09:42:35.100Z,12.52
2017-04-04T09:43:35.128Z,12.67
2017-04-04T09:44:49.761Z,13.03
2017-04-04T09:45:35.166Z,13.15
2017-04-04T09:46:35.228Z,13.32
2017-04-04T09:47:35.211Z,13.12
2017-04-04T09:48:35.239Z,13.2
2017-04-04T09:49:49.880Z,13.33
2017-04-04T09:51:35.303Z,13.55
2017-04-04T09:52:35.325Z,13.64
2017-04-04T09:53:35.355Z,13.62
2017-04-04T09:54:35.069Z,13.91
2017-04-04T09:55:35.391Z,13.59
2017-04-04T09:56:35.121Z,13.52
2017-04-04T09:57:35.439Z,13.33
2017-04-04T09:58:35.161Z,13.38
2017-04-04T09:59:50.104Z,13.36
2017-04-04T10:00:35.513Z,13.54
2017-04-04T10:01:35.236Z,13.17
2017-04-04T10:02:35.555Z,12.93
2017-04-04T10:03:35.581Z,13.1
2017-04-04T10:04:35.605Z,12.85
2017-04-04T10:05:35.627Z,12.42
2017-04-04T10:06:35.650Z,12.37
2017-04-04T10:07:35.676Z,12.46
2017-04-04T10:08:35.697Z,12.86
2017-04-04T10:09:50.337Z,13.46
2017-04-04T10:10:35.742Z,13.66
2017-04-04T10:11:35.771Z,13.88
2017-04-04T10:12:50.102Z,13.96
2017-04-04T10:13:35.816Z,14.04
2017-04-04T10:14:35.857Z,14.22
2017-04-04T10:15:35.863Z,14.14
2017-04-04T10:16:35.883Z,13.64
2017-04-04T10:17:35.909Z,13.19
2017-04-04T10:18:35.931Z,12.9
2017-04-04T10:19:35.958Z,13.05
2017-04-04T10:21:36.004Z,13.22
2017-04-04T10:22:36.028Z,13.22
2017-04-04T10:23:36.051Z,13.14
2017-04-04T10:24:36.082Z,13.2
2017-04-04T10:25:36.106Z,13.3
2017-04-04T10:26:50.738Z,13.2
2017-04-04T10:27:36.144Z,13.17
2017-04-04T10:28:36.171Z,13.04
2017-04-04T10:29:36.192Z,13.04
2017-04-04T10:30:36.220Z,13.15
2017-04-04T10:31:50.863Z,13.57
2017-04-04T10:32:36.266Z,13.54
2017-04-04T10:33:36.288Z,13.2
2017-04-04T10:34:36.310Z,13.05
2017-04-04T10:35:36.331Z,13.33
2017-04-04T10:36:36.363Z,13.48
2017-04-04T10:37:36.376Z,13.66
2017-04-04T10:38:36.404Z,13.66
2017-04-04T10:39:36.432Z,13.57
2017-04-04T10:40:36.189Z,13.55
2017-04-04T10:41:51.092Z,13.32
2017-04-04T10:42:51.113Z,13.33
2017-04-04T10:43:51.135Z,13.59
2017-04-04T10:44:36.597Z,13.64
2017-04-04T10:45:36.572Z,13.78
2017-04-04T10:46:36.592Z,13.91
2017-04-04T10:47:51.226Z,13.88
2017-04-04T10:48:36.636Z,13.88
2017-04-04T10:49:36.662Z,13.81
2017-04-04T10:50:36.685Z,13.62
2017-04-04T10:52:36.726Z,13.63
2017-04-04T10:53:36.750Z,13.92
2017-04-04T10:54:36.777Z,14.17
2017-04-04T10:55:36.800Z,14.17
2017-04-04T10:56:36.822Z,14.09
2017-04-04T10:57:51.513Z,13.89
2017-04-04T10:58:36.875Z,13.84
2017-04-04T10:59:51.507Z,13.73
2017-04-04T11:00:36.916Z,13.77
2017-04-04T11:01:36.938Z,13.64
2017-04-04T11:02:36.963Z,13.77
2017-04-04T11:03:51.606Z,13.67
2017-04-04T11:04:37.011Z,13.63
2017-04-04T11:05:37.033Z,13.7
2017-04-04T11:06:37.053Z,13.77
2017-04-04T11:07:37.122Z,13.88
2017-04-04T11:09:37.128Z,14.27
2017-04-04T11:10:37.152Z,14.32
2017-04-04T11:11:36.870Z,14.18
2017-04-04T11:12:51.509Z,14.1
2017-04-04T11:13:37.225Z,14.09
2017-04-04T11:14:51.862Z,14.2
2017-04-04T11:15:37.265Z,14.24
2017-04-04T11:16:37.292Z,14.35
2017-04-04T11:17:37.314Z,14.32
2017-04-04T11:18:37.337Z,14.22
2017-04-04T11:19:51.973Z,13.97
2017-04-04T11:20:37.379Z,14.03
2017-04-04T11:21:37.406Z,14.02
2017-04-04T11:22:37.430Z,14.36
2017-04-04T11:23:37.454Z,14.6
2017-04-04T11:24:37.475Z,14.8
2017-04-04T11:26:37.526Z,14.64
2017-04-04T11:27:37.547Z,14.5
2017-04-04T11:29:37.606Z,14.64
2017-04-04T11:30:37.619Z,14.69
2017-04-04T11:31:37.640Z,14.78
2017-04-04T11:32:37.664Z,14.62
2017-04-04T11:33:37.688Z,14.46
2017-04-04T11:35:37.741Z,14.42
2017-04-04T11:37:37.783Z,13.89
2017-04-04T11:38:37.807Z,13.91
2017-04-04T11:39:37.836Z,13.92
2017-04-04T11:40:37.855Z,13.87
2017-04-04T11:44:37.647Z,14.03
2017-04-04T11:45:37.977Z,14.2
2017-04-04T11:46:38.036Z,14.18
2017-04-04T11:47:38.019Z,14.1
2017-04-04T11:48:37.739Z,14
2017-04-04T11:49:38.067Z,13.84
2017-04-04T11:50:38.092Z,13.77
2017-04-04T11:51:38.118Z,13.52
2017-04-04T11:52:38.136Z,13.38
2017-04-04T11:53:38.166Z,13.52
2017-04-04T11:54:38.186Z,13.59
2017-04-04T11:55:38.207Z,13.6
2017-04-04T11:56:38.233Z,13.64
2017-04-04T11:57:38.261Z,13.88
2017-04-04T11:58:38.280Z,13.92
2017-04-04T11:59:38.307Z,14.06
2017-04-04T12:00:38.326Z,14.12
2017-04-04T12:01:38.350Z,13.95
2017-04-04T12:02:38.370Z,13.84
2017-04-04T12:03:38.395Z,13.99
2017-04-04T12:04:38.415Z,14.09
2017-04-04T12:05:38.441Z,13.88
2017-04-04T12:06:53.081Z,13.97
2017-04-04T12:07:38.489Z,13.95
2017-04-04T12:08:38.207Z,13.89
2017-04-04T12:09:38.533Z,13.84
2017-04-04T12:10:37.950Z,13.75
2017-04-04T12:11:38.584Z,13.89
2017-04-04T12:12:38.599Z,13.88
2017-04-04T12:13:38.626Z,13.89
2017-04-04T12:14:38.650Z,13.97
2017-04-04T12:15:38.671Z,13.96
2017-04-04T12:16:38.698Z,14.09
2017-04-04T12:17:53.334Z,14.24
2017-04-04T12:18:38.746Z,14.09
2017-04-04T12:19:38.766Z,14.24
2017-04-04T12:20:38.787Z,14.18
2017-04-04T12:21:38.812Z,14.37
2017-04-04T12:22:53.450Z,14.17
2017-04-04T12:23:38.863Z,14.12
2017-04-04T12:24:38.885Z,14.18
2017-04-04T12:25:38.906Z,14.17
2017-04-04T12:26:38.928Z,13.84
2017-04-04T12:27:38.649Z,13.57
2017-04-04T12:28:38.978Z,13.45
2017-04-04T12:30:53.641Z,13.52
2017-04-04T12:31:39.046Z,13.63
2017-04-04T12:32:39.067Z,13.89
2017-04-04T12:33:39.089Z,14.02
2017-04-04T12:34:39.116Z,13.73
2017-04-04T12:35:39.139Z,13.51
2017-04-04T12:36:39.162Z,13.45
2017-04-04T12:37:39.184Z,13.59
2017-04-04T12:38:53.823Z,13.62
2017-04-04T12:39:39.234Z,13.7
2017-04-04T12:40:39.255Z,13.89
2017-04-04T12:41:53.934Z,13.62
2017-04-04T12:42:39.302Z,13.62
2017-04-04T12:43:39.324Z,13.62
2017-04-04T12:44:39.361Z,13.55
2017-04-04T12:45:53.993Z,13.57
2017-04-04T12:46:39.403Z,13.49
2017-04-04T12:47:39.114Z,13.41
2017-04-04T12:48:39.846Z,13.51
2017-04-04T12:49:39.466Z,13.48
2017-04-04T12:50:39.496Z,13.49
2017-04-04T12:51:39.520Z,13.51
2017-04-04T12:52:39.538Z,13.67
2017-04-04T12:53:39.557Z,13.6
2017-04-04T12:54:54.201Z,13.38
2017-04-04T12:55:39.609Z,13.29
2017-04-04T12:56:39.328Z,13.17
2017-04-04T12:57:39.654Z,13.17
2017-04-04T12:59:39.702Z,13.04
2017-04-04T13:00:39.720Z,13.07
2017-04-04T13:01:39.748Z,12.92
2017-04-04T13:02:39.770Z,13.03
2017-04-04T13:03:39.489Z,12.95
2017-04-04T13:04:39.511Z,12.82
2017-04-04T13:05:54.455Z,12.77
2017-04-04T13:06:39.558Z,12.77
2017-04-04T13:07:39.885Z,12.82
2017-04-04T13:08:39.605Z,12.95
2017-04-04T13:09:54.547Z,12.78
2017-04-04T13:10:39.649Z,12.68
2017-04-04T13:11:39.975Z,12.45
2017-04-04T13:12:39.697Z,12.56
2017-04-04T13:13:39.719Z,12.67
2017-04-04T13:14:40.047Z,12.68
2017-04-04T13:15:40.067Z,12.72
2017-04-04T13:16:40.092Z,12.83
2017-04-04T13:17:40.116Z,12.79
2017-04-04T13:18:40.138Z,12.89
2017-04-04T13:19:40.158Z,12.77
2017-04-04T13:20:39.882Z,12.78
2017-04-04T13:21:54.821Z,12.79
2017-04-04T13:22:40.229Z,12.82
2017-04-04T13:23:40.254Z,12.96
2017-04-04T13:24:40.275Z,13.1
2017-04-04T13:25:40.299Z,13.1
2017-04-04T13:26:40.020Z,13.04
2017-04-04T13:27:40.343Z,13.11
2017-04-04T13:28:40.067Z,12.97
2017-04-04T13:29:40.390Z,12.85
2017-04-04T13:30:40.412Z,12.92
2017-04-04T13:31:40.437Z,12.85
2017-04-04T13:32:40.462Z,12.87
2017-04-04T13:33:40.479Z,12.83
2017-04-04T13:34:55.371Z,12.83
2017-04-04T13:35:55.144Z,12.7
2017-04-04T13:36:40.548Z,12.82
2017-04-04T13:37:55.187Z,12.92
2017-04-04T13:38:40.293Z,12.97
2017-04-04T13:39:40.620Z,12.82
2017-04-04T13:40:40.639Z,12.68
2017-04-04T13:41:55.280Z,12.77
2017-04-04T13:42:40.685Z,12.96
2017-04-04T13:43:40.706Z,12.87
2017-04-04T13:44:40.730Z,12.71
2017-04-04T13:45:40.759Z,12.65
2017-04-04T13:46:41.077Z,12.72
2017-04-04T13:47:40.809Z,12.74
2017-04-04T13:48:40.819Z,12.9
2017-04-04T13:49:40.846Z,12.79
2017-04-04T13:50:40.875Z,12.79
2017-04-04T13:51:40.893Z,12.64
2017-04-04T13:52:40.912Z,12.54
2017-04-04T13:53:40.938Z,12.64
2017-04-04T13:54:40.960Z,12.74
2017-04-04T13:55:40.981Z,12.72
2017-04-04T13:57:55.645Z,12.82
2017-04-04T13:58:41.049Z,12.92
2017-04-04T13:59:41.071Z,12.79
2017-04-04T14:00:41.094Z,12.82
2017-04-04T14:01:41.115Z,12.74
2017-04-04T14:02:41.144Z,12.89
2017-04-04T14:03:41.161Z,12.96
2017-04-04T14:04:41.182Z,12.89
2017-04-04T14:05:41.204Z,12.85
2017-04-04T14:06:41.225Z,12.87
2017-04-04T14:07:41.253Z,12.86
2017-04-04T14:08:41.279Z,12.97
2017-04-04T14:09:41.302Z,13.08